createdAt,value
2018-11-23T00:00:26.308Z,1012.54
2018-11-23T00:01:26.465Z,1012.48
2018-11-23T00:02:26.946Z,1012.51
2018-11-23T00:03:26.544Z,1012.52
2018-11-23T00:04:26.264Z,1012.50
2018-11-23T00:05:26.248Z,1012.50
2018-11-23T00:06:26.490Z,1012.50
2018-11-23T00:07:26.263Z,1012.47
2018-11-23T00:08:26.222Z,1012.48
2018-11-23T00:09:26.690Z,1012.45
2018-11-23T00:10:26.187Z,1012.46
2018-11-23T00:11:26.192Z,1012.49
2018-11-23T00:12:26.548Z,1012.51
2018-11-23T00:13:26.139Z,1012.50
2018-11-23T00:14:26.370Z,1012.50
2018-11-23T00:15:26.112Z,1012.49
2018-11-23T00:16:26.138Z,1012.45
2018-11-23T00:17:26.155Z,1012.51
2018-11-23T00:18:26.118Z,1012.55
2018-11-23T00:19:26.091Z,1012.49
2018-11-23T00:20:26.342Z,1012.53
2018-11-23T00:21:26.088Z,1012.50
2018-11-23T00:22:26.102Z,1012.44
2018-11-23T00:23:26.048Z,1012.52
2018-11-23T00:24:26.035Z,1012.54
2018-11-23T00:25:26.013Z,1012.50
2018-11-23T00:26:26.272Z,1012.48
2018-11-23T00:27:26.019Z,1012.52
2018-11-23T00:28:26.226Z,1012.59
2018-11-23T00:29:26.010Z,1012.58
2018-11-23T00:30:26.227Z,1012.57
2018-11-23T00:31:25.975Z,1012.63
2018-11-23T00:32:25.996Z,1012.64
2018-11-23T00:33:25.952Z,1012.64
2018-11-23T00:34:26.440Z,1012.68
2018-11-23T00:35:25.943Z,1012.69
2018-11-23T00:36:25.935Z,1012.73
2018-11-23T00:37:25.900Z,1012.67
2018-11-23T00:38:26.120Z,1012.72
2018-11-23T00:39:26.145Z,1012.73
2018-11-23T00:40:25.904Z,1012.74
2018-11-23T00:41:25.893Z,1012.74
2018-11-23T00:42:26.156Z,1012.76
2018-11-23T00:43:25.855Z,1012.74
2018-11-23T00:44:25.876Z,1012.77
2018-11-23T00:45:26.069Z,1012.74
2018-11-23T00:46:25.772Z,1012.72
2018-11-23T00:47:26.866Z,1012.75
2018-11-23T00:48:26.327Z,1012.76
2018-11-23T00:49:25.745Z,1012.80
2018-11-23T00:50:25.730Z,1012.76
2018-11-23T00:51:25.752Z,1012.80
2018-11-23T00:52:25.997Z,1012.79
2018-11-23T00:53:26.011Z,1012.81
2018-11-23T00:54:25.714Z,1012.79
2018-11-23T00:55:25.717Z,1012.75
2018-11-23T00:56:25.732Z,1012.80
2018-11-23T00:57:25.674Z,1012.85
2018-11-23T00:58:25.646Z,1012.79
2018-11-23T00:59:25.912Z,1012.82
2018-11-23T01:00:25.655Z,1012.79
2018-11-23T01:01:25.659Z,1012.76
2018-11-23T01:02:25.609Z,1012.77
2018-11-23T01:03:25.608Z,1012.73
2018-11-23T01:04:25.622Z,1012.71
2018-11-23T01:05:25.847Z,1012.72
2018-11-23T01:06:26.208Z,1012.73
2018-11-23T01:07:25.844Z,1012.71
2018-11-23T01:08:25.537Z,1012.70
2018-11-23T01:09:25.565Z,1012.67
2018-11-23T01:10:25.513Z,1012.68
2018-11-23T01:11:25.549Z,1012.66
2018-11-23T01:12:25.489Z,1012.70
2018-11-23T01:13:25.517Z,1012.65
2018-11-23T01:14:25.515Z,1012.65
2018-11-23T01:15:25.520Z,1012.67
2018-11-23T01:16:25.451Z,1012.66
2018-11-23T01:17:25.745Z,1012.65
2018-11-23T01:18:25.756Z,1012.67
2018-11-23T01:19:25.434Z,1012.63
2018-11-23T01:20:25.413Z,1012.66
2018-11-23T01:21:25.650Z,1012.58
2018-11-23T01:22:25.395Z,1012.61
2018-11-23T01:23:25.407Z,1012.60
2018-11-23T01:24:25.407Z,1012.60
2018-11-23T01:25:25.396Z,1012.59
2018-11-23T01:26:25.386Z,1012.65
2018-11-23T01:27:25.364Z,1012.64
2018-11-23T01:28:25.384Z,1012.67
2018-11-23T01:29:25.343Z,1012.64
2018-11-23T01:30:27.224Z,1012.65
2018-11-23T01:31:25.346Z,1012.64
2018-11-23T01:32:25.317Z,1012.67
2018-11-23T01:33:25.341Z,1012.67
2018-11-23T01:34:25.574Z,1012.66
2018-11-23T01:35:25.274Z,1012.69
2018-11-23T01:36:25.296Z,1012.66
2018-11-23T01:37:25.242Z,1012.65
2018-11-23T01:38:25.291Z,1012.64
2018-11-23T01:39:25.224Z,1012.67
2018-11-23T01:40:25.256Z,1012.67
2018-11-23T01:41:25.210Z,1012.62
2018-11-23T01:42:25.181Z,1012.55
2018-11-23T01:43:25.478Z,1012.58
2018-11-23T01:44:25.216Z,1012.58
2018-11-23T01:45:25.136Z,1012.60
2018-11-23T01:46:25.129Z,1012.64
2018-11-23T01:47:25.150Z,1012.59
2018-11-23T01:48:25.172Z,1012.56
2018-11-23T01:49:25.363Z,1012.62
2018-11-23T01:50:25.106Z,1012.57
2018-11-23T01:51:25.117Z,1012.59
2018-11-23T01:52:28.516Z,1012.57
2018-11-23T01:53:25.088Z,1012.56
2018-11-23T01:54:25.062Z,1012.59
2018-11-23T01:55:25.049Z,1012.54
2018-11-23T01:56:25.080Z,1012.53
2018-11-23T01:57:25.037Z,1012.48
2018-11-23T01:58:25.062Z,1012.50
2018-11-23T01:59:25.100Z,1012.53
2018-11-23T02:00:24.985Z,1012.49
2018-11-23T02:01:28.171Z,1012.55
2018-11-23T02:02:24.959Z,1012.49
2018-11-23T02:03:24.979Z,1012.47
2018-11-23T02:04:25.239Z,1012.49
2018-11-23T02:05:24.937Z,1012.48
2018-11-23T02:06:24.925Z,1012.49
2018-11-23T02:07:28.078Z,1012.42
2018-11-23T02:08:24.964Z,1012.40
2018-11-23T02:09:24.987Z,1012.44
2018-11-23T02:10:24.930Z,1012.41
2018-11-23T02:11:25.209Z,1012.41
2018-11-23T02:12:24.899Z,1012.43
2018-11-23T02:13:25.148Z,1012.47
2018-11-23T02:14:24.840Z,1012.46
2018-11-23T02:15:24.852Z,1012.45
2018-11-23T02:16:24.811Z,1012.42
2018-11-23T02:17:24.798Z,1012.47
2018-11-23T02:18:24.849Z,1012.45
2018-11-23T02:19:24.848Z,1012.43
2018-11-23T02:20:24.793Z,1012.45
2018-11-23T02:21:24.796Z,1012.52
2018-11-23T02:22:24.747Z,1012.53
2018-11-23T02:23:24.794Z,1012.46
2018-11-23T02:24:24.729Z,1012.46
2018-11-23T02:25:24.714Z,1012.44
2018-11-23T02:26:24.960Z,1012.45
2018-11-23T02:27:24.687Z,1012.46
2018-11-23T02:28:24.712Z,1012.47
2018-11-23T02:29:24.676Z,1012.50
2018-11-23T02:30:24.673Z,1012.52
2018-11-23T02:31:24.658Z,1012.47
2018-11-23T02:32:24.891Z,1012.48
2018-11-23T02:33:24.726Z,1012.52
2018-11-23T02:34:24.629Z,1012.49
2018-11-23T02:35:24.605Z,1012.51
2018-11-23T02:36:24.607Z,1012.46
2018-11-23T02:37:24.583Z,1012.49
2018-11-23T02:38:24.794Z,1012.49
2018-11-23T02:39:24.575Z,1012.54
2018-11-23T02:40:24.568Z,1012.50
2018-11-23T02:41:24.639Z,1012.53
2018-11-23T02:42:24.822Z,1012.51
2018-11-23T02:43:24.832Z,1012.49
2018-11-23T02:44:24.567Z,1012.51
2018-11-23T02:45:24.753Z,1012.45
2018-11-23T02:46:24.569Z,1012.49
2018-11-23T02:47:24.481Z,1012.47
2018-11-23T02:48:24.507Z,1012.49
2018-11-23T02:49:24.505Z,1012.47
2018-11-23T02:50:24.723Z,1012.48
2018-11-23T02:51:25.021Z,1012.43
2018-11-23T02:52:24.434Z,1012.45
2018-11-23T02:53:24.506Z,1012.43
2018-11-23T02:54:24.476Z,1012.36
2018-11-23T02:55:24.420Z,1012.35
2018-11-23T02:56:24.442Z,1012.43
2018-11-23T02:57:24.625Z,1012.36
2018-11-23T02:58:24.366Z,1012.36
2018-11-23T02:59:24.428Z,1012.34
2018-11-23T03:00:26.445Z,1012.39
2018-11-23T03:01:24.326Z,1012.38
2018-11-23T03:02:24.614Z,1012.36
2018-11-23T03:03:24.615Z,1012.40
2018-11-23T03:04:24.512Z,1012.43
2018-11-23T03:05:24.292Z,1012.38
2018-11-23T03:06:24.289Z,1012.43
2018-11-23T03:07:24.264Z,1012.44
2018-11-23T03:08:24.257Z,1012.39
2018-11-23T03:09:24.277Z,1012.41
2018-11-23T03:10:24.292Z,1012.43
2018-11-23T03:11:24.240Z,1012.43
2018-11-23T03:12:24.207Z,1012.44
2018-11-23T03:13:24.233Z,1012.39
2018-11-23T03:14:24.226Z,1012.41
2018-11-23T03:15:24.495Z,1012.39
2018-11-23T03:16:24.195Z,1012.36
2018-11-23T03:17:24.414Z,1012.39
2018-11-23T03:18:24.415Z,1012.38
2018-11-23T03:19:24.170Z,1012.32
2018-11-23T03:20:24.697Z,1012.32
2018-11-23T03:21:24.114Z,1012.32
2018-11-23T03:22:24.123Z,1012.35
2018-11-23T03:23:24.095Z,1012.34
2018-11-23T03:24:24.370Z,1012.34
2018-11-23T03:25:24.077Z,1012.32
2018-11-23T03:26:24.318Z,1012.32
2018-11-23T03:27:24.054Z,1012.27
2018-11-23T03:28:24.074Z,1012.30
2018-11-23T03:29:24.070Z,1012.35
2018-11-23T03:30:24.069Z,1012.30
2018-11-23T03:31:24.013Z,1012.29
2018-11-23T03:32:24.052Z,1012.27
2018-11-23T03:33:24.062Z,1012.30
2018-11-23T03:34:24.031Z,1012.26
2018-11-23T03:35:23.984Z,1012.30
2018-11-23T03:36:23.950Z,1012.28
2018-11-23T03:37:23.951Z,1012.26
2018-11-23T03:38:23.944Z,1012.30
2018-11-23T03:39:23.994Z,1012.29
2018-11-23T03:40:24.202Z,1012.27
2018-11-23T03:41:23.899Z,1012.25
2018-11-23T03:42:23.927Z,1012.28
2018-11-23T03:43:24.189Z,1012.26
2018-11-23T03:44:23.917Z,1012.27
2018-11-23T03:45:24.154Z,1012.25
2018-11-23T03:46:23.844Z,1012.25
2018-11-23T03:47:23.835Z,1012.22
2018-11-23T03:48:23.860Z,1012.22
2018-11-23T03:49:23.861Z,1012.21
2018-11-23T03:50:23.926Z,1012.21
2018-11-23T03:51:23.798Z,1012.23
2018-11-23T03:52:23.787Z,1012.23
2018-11-23T03:53:23.774Z,1012.23
2018-11-23T03:54:23.815Z,1012.23
2018-11-23T03:55:24.260Z,1012.32
2018-11-23T03:56:24.008Z,1012.29
2018-11-23T03:57:23.735Z,1012.30
2018-11-23T03:58:23.724Z,1012.32
2018-11-23T03:59:23.844Z,1012.31
2018-11-23T04:00:23.697Z,1012.32
2018-11-23T04:01:23.691Z,1012.32
2018-11-23T04:02:23.925Z,1012.28
2018-11-23T04:03:23.691Z,1012.29
2018-11-23T04:04:23.688Z,1012.31
2018-11-23T04:05:23.649Z,1012.29
2018-11-23T04:06:23.632Z,1012.31
2018-11-23T04:07:23.624Z,1012.29
2018-11-23T04:08:24.162Z,1012.31
2018-11-23T04:09:23.631Z,1012.30
2018-11-23T04:10:23.669Z,1012.30
2018-11-23T04:11:23.616Z,1012.33
2018-11-23T04:12:23.582Z,1012.31
2018-11-23T04:13:23.636Z,1012.30
2018-11-23T04:14:23.893Z,1012.30
2018-11-23T04:15:23.539Z,1012.35
2018-11-23T04:16:23.677Z,1012.32
2018-11-23T04:17:23.512Z,1012.34
2018-11-23T04:18:23.846Z,1012.29
2018-11-23T04:19:25.483Z,1012.28
2018-11-23T04:20:23.788Z,1012.23
2018-11-23T04:21:23.508Z,1012.22
2018-11-23T04:22:23.467Z,1012.23
2018-11-23T04:23:23.514Z,1012.23
2018-11-23T04:24:23.439Z,1012.18
2018-11-23T04:25:23.496Z,1012.19
2018-11-23T04:26:24.849Z,1012.24
2018-11-23T04:27:23.409Z,1012.21
2018-11-23T04:28:23.390Z,1012.25
2018-11-23T04:29:23.419Z,1012.27
2018-11-23T04:30:23.411Z,1012.25
2018-11-23T04:31:23.368Z,1012.29
2018-11-23T04:32:23.619Z,1012.29
2018-11-23T04:33:23.380Z,1012.33
2018-11-23T04:34:27.354Z,1012.33
2018-11-23T04:35:23.609Z,1012.35
2018-11-23T04:36:23.312Z,1012.32
2018-11-23T04:37:23.300Z,1012.28
2018-11-23T04:38:23.571Z,1012.24
2018-11-23T04:39:23.276Z,1012.29
2018-11-23T04:40:23.310Z,1012.27
2018-11-23T04:41:23.745Z,1012.29
2018-11-23T04:42:23.247Z,1012.27
2018-11-23T04:43:23.229Z,1012.31
2018-11-23T04:44:23.221Z,1012.30
2018-11-23T04:45:23.247Z,1012.28
2018-11-23T04:46:23.478Z,1012.31
2018-11-23T04:47:23.449Z,1012.28
2018-11-23T04:48:23.215Z,1012.30
2018-11-23T04:49:23.421Z,1012.30
2018-11-23T04:50:23.190Z,1012.37
2018-11-23T04:51:23.440Z,1012.34
2018-11-23T04:52:23.139Z,1012.36
2018-11-23T04:53:23.676Z,1012.35
2018-11-23T04:54:23.112Z,1012.35
2018-11-23T04:55:23.427Z,1012.32
2018-11-23T04:56:23.109Z,1012.37
2018-11-23T04:57:23.082Z,1012.35
2018-11-23T04:58:23.323Z,1012.36
2018-11-23T04:59:23.056Z,1012.31
2018-11-23T05:00:23.115Z,1012.31
2018-11-23T05:01:23.061Z,1012.33
2018-11-23T05:02:23.291Z,1012.33
2018-11-23T05:03:23.270Z,1012.31
2018-11-23T05:04:23.026Z,1012.30
2018-11-23T05:05:23.063Z,1012.29
2018-11-23T05:06:22.992Z,1012.23
2018-11-23T05:07:22.973Z,1012.26
2018-11-23T05:08:22.964Z,1012.23
2018-11-23T05:09:23.198Z,1012.27
2018-11-23T05:10:23.308Z,1012.28
2018-11-23T05:11:22.943Z,1012.27
2018-11-23T05:12:22.928Z,1012.23
2018-11-23T05:13:23.162Z,1012.26
2018-11-23T05:14:22.925Z,1012.22
2018-11-23T05:15:23.124Z,1012.16
2018-11-23T05:16:22.921Z,1012.18
2018-11-23T05:17:22.865Z,1012.21
2018-11-23T05:18:22.907Z,1012.17
2018-11-23T05:19:22.845Z,1012.20
2018-11-23T05:20:22.885Z,1012.18
2018-11-23T05:21:22.827Z,1012.16
2018-11-23T05:22:22.845Z,1012.21
2018-11-23T05:23:22.816Z,1012.19
2018-11-23T05:24:22.793Z,1012.24
2018-11-23T05:25:22.809Z,1012.25
2018-11-23T05:26:22.775Z,1012.25
2018-11-23T05:27:22.763Z,1012.27
2018-11-23T05:28:22.751Z,1012.30
2018-11-23T05:29:23.197Z,1012.29
2018-11-23T05:30:23.063Z,1012.26
2018-11-23T05:31:22.768Z,1012.24
2018-11-23T05:32:22.740Z,1012.22
2018-11-23T05:33:22.696Z,1012.17
2018-11-23T05:34:22.687Z,1012.18
2018-11-23T05:35:22.715Z,1012.15
2018-11-23T05:36:23.358Z,1012.17
2018-11-23T05:37:22.689Z,1012.15
2018-11-23T05:38:22.652Z,1012.14
2018-11-23T05:39:22.634Z,1012.15
2018-11-23T05:40:22.657Z,1012.13
2018-11-23T05:41:22.619Z,1012.10
2018-11-23T05:42:22.884Z,1012.14
2018-11-23T05:43:22.595Z,1012.10
2018-11-23T05:44:22.606Z,1012.03
2018-11-23T05:45:22.596Z,1012.07
2018-11-23T05:46:22.561Z,1012.04
2018-11-23T05:47:22.558Z,1012.07
2018-11-23T05:48:26.783Z,1012.07
2018-11-23T05:49:22.577Z,1012.03
2018-11-23T05:50:22.581Z,1012.04
2018-11-23T05:51:22.568Z,1012.03
2018-11-23T05:52:22.488Z,1012.00
2018-11-23T05:53:22.521Z,1011.99
2018-11-23T05:54:22.475Z,1011.98
2018-11-23T05:55:22.751Z,1011.96
2018-11-23T05:56:22.716Z,1012.01
2018-11-23T05:57:22.735Z,1011.97
2018-11-23T05:58:22.422Z,1011.95
2018-11-23T05:59:22.424Z,1011.88
2018-11-23T06:00:22.456Z,1011.92
2018-11-23T06:01:22.418Z,1011.90
2018-11-23T06:02:22.657Z,1011.89
2018-11-23T06:03:22.374Z,1011.84
2018-11-23T06:04:22.374Z,1011.82
2018-11-23T06:05:22.389Z,1011.80
2018-11-23T06:06:22.638Z,1011.76
2018-11-23T06:07:23.790Z,1011.78
2018-11-23T06:08:22.333Z,1011.74
2018-11-23T06:09:22.311Z,1011.77
2018-11-23T06:10:22.340Z,1011.79
2018-11-23T06:11:22.290Z,1011.85
2018-11-23T06:12:22.276Z,1011.90
2018-11-23T06:13:22.276Z,1011.89
2018-11-23T06:14:22.529Z,1011.85
2018-11-23T06:15:22.258Z,1011.88
2018-11-23T06:16:22.289Z,1011.92
2018-11-23T06:17:22.227Z,1011.94
2018-11-23T06:18:22.246Z,1011.94
2018-11-23T06:19:22.208Z,1011.91
2018-11-23T06:20:22.204Z,1011.92
2018-11-23T06:21:22.228Z,1011.93
2018-11-23T06:22:22.197Z,1011.93
2018-11-23T06:23:22.169Z,1011.96
2018-11-23T06:24:22.146Z,1011.92
2018-11-23T06:25:22.143Z,1011.98
2018-11-23T06:26:22.208Z,1011.98
2018-11-23T06:27:22.148Z,1011.97
2018-11-23T06:28:22.360Z,1012.02
2018-11-23T06:29:22.097Z,1012.01
2018-11-23T06:30:22.103Z,1011.98
2018-11-23T06:31:22.389Z,1012.04
2018-11-23T06:32:22.079Z,1012.04
2018-11-23T06:33:22.086Z,1012.03
2018-11-23T06:34:22.310Z,1012.09
2018-11-23T06:35:22.300Z,1012.07
2018-11-23T06:36:22.069Z,1012.08
2018-11-23T06:37:22.031Z,1012.09
2018-11-23T06:38:22.320Z,1012.07
2018-11-23T06:39:21.997Z,1012.10
2018-11-23T06:40:21.986Z,1012.08
2018-11-23T06:41:22.004Z,1012.18
2018-11-23T06:42:21.983Z,1012.13
2018-11-23T06:43:21.948Z,1012.11
2018-11-23T06:44:22.194Z,1012.17
2018-11-23T06:45:21.928Z,1012.12
2018-11-23T06:46:21.957Z,1012.14
2018-11-23T06:47:21.938Z,1012.11
2018-11-23T06:48:21.926Z,1012.12
2018-11-23T06:49:22.173Z,1012.08
2018-11-23T06:50:21.904Z,1012.09
2018-11-23T06:51:21.918Z,1012.16
2018-11-23T06:52:21.863Z,1012.16
2018-11-23T06:53:21.906Z,1012.16
2018-11-23T06:54:21.833Z,1012.20
2018-11-23T06:55:21.830Z,1012.18
2018-11-23T06:56:21.814Z,1012.18
2018-11-23T06:57:21.873Z,1012.18
2018-11-23T06:58:21.798Z,1012.19
2018-11-23T06:59:22.030Z,1012.19
2018-11-23T07:00:21.789Z,1012.20
2018-11-23T07:01:21.760Z,1012.16
2018-11-23T07:02:21.783Z,1012.15
2018-11-23T07:03:22.018Z,1012.17
2018-11-23T07:04:21.737Z,1012.16
2018-11-23T07:05:21.715Z,1012.17
2018-11-23T07:06:21.745Z,1012.19
2018-11-23T07:07:21.735Z,1012.17
2018-11-23T07:08:21.992Z,1012.18
2018-11-23T07:09:21.691Z,1012.20
2018-11-23T07:10:21.658Z,1012.22
2018-11-23T07:11:22.101Z,1012.19
2018-11-23T07:12:22.059Z,1012.22
2018-11-23T07:13:21.971Z,1012.17
2018-11-23T07:14:22.560Z,1012.23
2018-11-23T07:15:21.611Z,1012.24
2018-11-23T07:16:21.869Z,1012.24
2018-11-23T07:17:21.662Z,1012.27
2018-11-23T07:18:21.622Z,1012.25
2018-11-23T07:19:21.831Z,1012.25
2018-11-23T07:20:21.578Z,1012.29
2018-11-23T07:21:21.652Z,1012.28
2018-11-23T07:22:21.552Z,1012.24
2018-11-23T07:23:21.602Z,1012.20
2018-11-23T07:24:21.651Z,1012.16
2018-11-23T07:25:21.692Z,1012.28
2018-11-23T07:26:21.610Z,1012.22
2018-11-23T07:27:21.571Z,1012.21
2018-11-23T07:28:21.536Z,1012.26
2018-11-23T07:29:23.304Z,1012.25
2018-11-23T07:30:26.184Z,1012.17
2018-11-23T07:31:21.811Z,1012.24
2018-11-23T07:32:22.853Z,1012.16
2018-11-23T07:33:21.507Z,1012.25
2018-11-23T07:34:21.615Z,1012.24
2018-11-23T07:35:22.024Z,1012.25
2018-11-23T07:36:21.564Z,1012.25
2018-11-23T07:37:21.658Z,1012.25
2018-11-23T07:38:21.528Z,1012.23
2018-11-23T07:39:21.555Z,1012.25
2018-11-23T07:40:21.824Z,1012.22
2018-11-23T07:41:21.702Z,1012.25
2018-11-23T07:42:22.257Z,1012.20
2018-11-23T07:43:21.808Z,1012.21
2018-11-23T07:44:21.805Z,1012.24
2018-11-23T07:45:21.409Z,1012.25
2018-11-23T07:46:21.383Z,1012.30
2018-11-23T07:47:21.374Z,1012.29
2018-11-23T07:48:21.468Z,1012.33
2018-11-23T07:49:21.447Z,1012.31
2018-11-23T07:50:21.388Z,1012.32
2018-11-23T07:51:21.434Z,1012.31
2018-11-23T07:52:21.318Z,1012.28
2018-11-23T07:53:21.526Z,1012.28
2018-11-23T07:54:22.191Z,1012.30
2018-11-23T07:55:21.282Z,1012.32
2018-11-23T07:56:21.204Z,1012.31
2018-11-23T07:57:21.467Z,1012.35
2018-11-23T07:58:21.580Z,1012.34
2018-11-23T07:59:21.158Z,1012.36
2018-11-23T08:00:21.171Z,1012.34
2018-11-23T08:01:21.156Z,1012.39
2018-11-23T08:02:21.214Z,1012.27
2018-11-23T08:03:21.446Z,1012.23
2018-11-23T08:04:21.166Z,1012.24
2018-11-23T08:05:21.114Z,1012.20
2018-11-23T08:06:21.615Z,1012.19
2018-11-23T08:07:21.359Z,1012.22
2018-11-23T08:08:21.364Z,1012.21
2018-11-23T08:09:21.187Z,1012.22
2018-11-23T08:10:21.084Z,1012.17
2018-11-23T08:11:21.296Z,1012.16
2018-11-23T08:12:21.031Z,1012.04
2018-11-23T08:13:21.117Z,1012.09
2018-11-23T08:14:21.391Z,1012.05
2018-11-23T08:15:21.011Z,1012.04
2018-11-23T08:16:21.023Z,1012.02
2018-11-23T08:17:21.091Z,1012.06
2018-11-23T08:18:21.484Z,1012.04
2018-11-23T08:19:21.291Z,1012.05
2018-11-23T08:20:20.961Z,1012.10
2018-11-23T08:21:20.957Z,1012.13
2018-11-23T08:22:21.167Z,1012.13
2018-11-23T08:23:24.860Z,1012.14
2018-11-23T08:24:25.210Z,1012.10
2018-11-23T08:25:21.335Z,1012.12
2018-11-23T08:26:21.366Z,1012.11
2018-11-23T08:27:20.934Z,1012.13
2018-11-23T08:28:21.695Z,1012.09
2018-11-23T08:29:22.555Z,1012.11
2018-11-23T08:30:20.929Z,1012.09
2018-11-23T08:31:20.931Z,1012.12
2018-11-23T08:32:24.651Z,1012.12
2018-11-23T08:33:21.877Z,1012.12
2018-11-23T08:34:21.052Z,1012.12
2018-11-23T08:35:20.956Z,1012.08
2018-11-23T08:36:20.797Z,1012.08
2018-11-23T08:37:20.983Z,1012.09
2018-11-23T08:38:20.788Z,1011.98
2018-11-23T08:39:21.052Z,1012.02
2018-11-23T08:40:21.000Z,1012.05
2018-11-23T08:41:20.826Z,1012.07
2018-11-23T08:42:21.103Z,1012.07
2018-11-23T08:43:21.238Z,1012.00
2018-11-23T08:44:20.802Z,1011.98
2018-11-23T08:45:20.931Z,1012.04
2018-11-23T08:46:20.945Z,1012.00
2018-11-23T08:47:21.830Z,1011.98
2018-11-23T08:48:20.762Z,1011.99
2018-11-23T08:49:24.054Z,1012.00
2018-11-23T08:50:20.606Z,1011.94
2018-11-23T08:51:20.639Z,1011.95
2018-11-23T08:52:20.575Z,1011.91
2018-11-23T08:53:27.746Z,1011.94
2018-11-23T08:54:20.602Z,1011.89
2018-11-23T08:55:20.576Z,1011.90
2018-11-23T08:56:20.774Z,1011.86
2018-11-23T08:57:20.508Z,1011.91
2018-11-23T08:58:20.750Z,1011.96
2018-11-23T08:59:21.152Z,1011.93
2018-11-23T09:00:20.537Z,1011.94
2018-11-23T09:01:20.482Z,1011.98
2018-11-23T09:02:20.969Z,1011.99
2018-11-23T09:03:20.446Z,1011.95
2018-11-23T09:04:20.755Z,1011.97
2018-11-23T09:05:20.757Z,1011.94
2018-11-23T09:06:20.678Z,1011.95
2018-11-23T09:07:20.433Z,1011.97
2018-11-23T09:08:20.837Z,1011.89
2018-11-23T09:09:20.430Z,1011.90
2018-11-23T09:10:20.629Z,1011.92
2018-11-23T09:11:21.155Z,1011.86
2018-11-23T09:12:20.527Z,1011.81
2018-11-23T09:13:20.704Z,1011.85
2018-11-23T09:14:20.491Z,1011.82
2018-11-23T09:15:21.238Z,1011.85
2018-11-23T09:16:20.346Z,1011.84
2018-11-23T09:17:20.578Z,1011.88
2018-11-23T09:18:20.622Z,1011.86
2018-11-23T09:19:20.599Z,1011.92
2018-11-23T09:20:20.837Z,1011.88
2018-11-23T09:21:20.526Z,1011.84
2018-11-23T09:22:23.551Z,1011.81
2018-11-23T09:23:20.235Z,1011.79
2018-11-23T09:24:20.276Z,1011.79
2018-11-23T09:25:20.219Z,1011.77
2018-11-23T09:26:20.231Z,1011.76
2018-11-23T09:27:20.459Z,1011.73
2018-11-23T09:28:20.176Z,1011.76
2018-11-23T09:29:21.618Z,1011.78
2018-11-23T09:30:20.541Z,1011.79
2018-11-23T09:31:20.241Z,1011.75
2018-11-23T09:32:20.256Z,1011.79
2018-11-23T09:33:20.497Z,1011.80
2018-11-23T09:34:20.265Z,1011.77
2018-11-23T09:35:20.577Z,1011.81
2018-11-23T09:36:20.203Z,1011.78
2018-11-23T09:37:20.270Z,1011.75
2018-11-23T09:38:21.449Z,1011.75
2018-11-23T09:39:20.642Z,1011.74
2018-11-23T09:40:20.323Z,1011.81
2018-11-23T09:41:20.967Z,1011.76
2018-11-23T09:42:20.063Z,1011.73
2018-11-23T09:43:20.014Z,1011.74
2018-11-23T09:44:20.113Z,1011.73
2018-11-23T09:45:20.001Z,1011.68
2018-11-23T09:46:19.982Z,1011.67
2018-11-23T09:47:20.322Z,1011.70
2018-11-23T09:48:20.594Z,1011.72
2018-11-23T09:49:20.288Z,1011.71
2018-11-23T09:50:20.709Z,1011.74
2018-11-23T09:51:19.939Z,1011.74
2018-11-23T09:52:19.938Z,1011.67
2018-11-23T09:53:19.920Z,1011.77
2018-11-23T09:54:19.966Z,1011.74
2018-11-23T09:55:20.146Z,1011.76
2018-11-23T09:56:20.255Z,1011.74
2018-11-23T09:57:19.879Z,1011.77
2018-11-23T09:58:19.865Z,1011.77
2018-11-23T09:59:19.901Z,1011.75
2018-11-23T10:00:20.386Z,1011.72
2018-11-23T10:01:20.074Z,1011.73
2018-11-23T10:02:19.810Z,1011.72
2018-11-23T10:03:20.134Z,1011.72
2018-11-23T10:04:19.840Z,1011.74
2018-11-23T10:05:19.790Z,1011.68
2018-11-23T10:06:20.041Z,1011.62
2018-11-23T10:07:20.021Z,1011.62
2018-11-23T10:08:19.776Z,1011.64
2018-11-23T10:09:20.033Z,1011.64
2018-11-23T10:10:19.985Z,1011.62
2018-11-23T10:11:19.780Z,1011.58
2018-11-23T10:12:19.714Z,1011.57
2018-11-23T10:13:21.363Z,1011.55
2018-11-23T10:14:19.691Z,1011.56
2018-11-23T10:15:19.673Z,1011.52
2018-11-23T10:16:19.909Z,1011.49
2018-11-23T10:17:19.688Z,1011.46
2018-11-23T10:18:19.675Z,1011.43
2018-11-23T10:19:19.629Z,1011.44
2018-11-23T10:20:19.929Z,1011.42
2018-11-23T10:21:19.669Z,1011.40
2018-11-23T10:22:20.126Z,1011.46
2018-11-23T10:23:19.591Z,1011.44
2018-11-23T10:24:19.830Z,1011.45
2018-11-23T10:25:19.624Z,1011.44
2018-11-23T10:26:19.551Z,1011.43
2018-11-23T10:27:19.797Z,1011.45
2018-11-23T10:28:19.809Z,1011.42
2018-11-23T10:29:19.779Z,1011.39
2018-11-23T10:30:19.793Z,1011.37
2018-11-23T10:31:19.508Z,1011.36
2018-11-23T10:32:19.506Z,1011.34
2018-11-23T10:33:19.524Z,1011.34
2018-11-23T10:34:19.475Z,1011.35
2018-11-23T10:35:19.998Z,1011.35
2018-11-23T10:36:19.448Z,1011.38
2018-11-23T10:37:19.691Z,1011.40
2018-11-23T10:38:19.448Z,1011.36
2018-11-23T10:39:19.992Z,1011.32
2018-11-23T10:40:20.151Z,1011.33
2018-11-23T10:41:19.415Z,1011.33
2018-11-23T10:42:19.380Z,1011.31
2018-11-23T10:43:19.625Z,1011.28
2018-11-23T10:44:19.404Z,1011.28
2018-11-23T10:45:22.713Z,1011.27
2018-11-23T10:46:19.390Z,1011.25
2018-11-23T10:47:19.841Z,1011.28
2018-11-23T10:48:19.336Z,1011.23
2018-11-23T10:49:19.301Z,1011.23
2018-11-23T10:50:19.847Z,1011.25
2018-11-23T10:51:19.540Z,1011.16
2018-11-23T10:52:19.263Z,1011.18
2018-11-23T10:53:19.265Z,1011.15
2018-11-23T10:54:19.499Z,1011.13
2018-11-23T10:55:19.302Z,1011.15
2018-11-23T10:56:19.247Z,1011.17
2018-11-23T10:57:19.496Z,1011.10
2018-11-23T10:58:19.457Z,1011.12
2018-11-23T10:59:19.729Z,1011.07
2018-11-23T11:00:25.118Z,1011.03
2018-11-23T11:01:19.449Z,1011.04
2018-11-23T11:02:22.683Z,1011.03
2018-11-23T11:03:19.163Z,1011.02
2018-11-23T11:04:19.144Z,1010.99
2018-11-23T11:05:19.961Z,1010.97
2018-11-23T11:06:19.133Z,1010.96
2018-11-23T11:07:19.118Z,1010.91
2018-11-23T11:08:20.141Z,1010.87
2018-11-23T11:09:19.764Z,1010.86
2018-11-23T11:10:19.097Z,1010.84
2018-11-23T11:11:23.485Z,1010.80
2018-11-23T11:12:19.054Z,1010.81
2018-11-23T11:13:19.063Z,1010.79
2018-11-23T11:14:19.079Z,1010.76
2018-11-23T11:15:19.289Z,1010.72
2018-11-23T11:16:19.325Z,1010.71
2018-11-23T11:17:19.253Z,1010.70
2018-11-23T11:18:18.992Z,1010.71
2018-11-23T11:19:18.986Z,1010.65
2018-11-23T11:20:19.264Z,1010.70
2018-11-23T11:21:19.289Z,1010.66
2018-11-23T11:22:19.226Z,1010.60
2018-11-23T11:23:19.210Z,1010.66
2018-11-23T11:24:18.920Z,1010.55
2018-11-23T11:25:18.927Z,1010.57
2018-11-23T11:26:18.926Z,1010.53
2018-11-23T11:27:17.929Z,1010.50
2018-11-23T11:28:18.895Z,1010.52
2018-11-23T11:29:19.125Z,1010.52
2018-11-23T11:30:19.661Z,1010.48
2018-11-23T11:31:18.902Z,1010.49
2018-11-23T11:32:19.124Z,1010.47
2018-11-23T11:33:19.086Z,1010.47
2018-11-23T11:34:18.822Z,1010.44
2018-11-23T11:35:18.832Z,1010.41
2018-11-23T11:36:18.822Z,1010.42
2018-11-23T11:37:19.068Z,1010.41
2018-11-23T11:38:18.781Z,1010.41
2018-11-23T11:39:19.027Z,1010.39
2018-11-23T11:40:19.051Z,1010.42
2018-11-23T11:41:19.094Z,1010.39
2018-11-23T11:42:19.103Z,1010.38
2018-11-23T11:43:20.455Z,1010.39
2018-11-23T11:44:18.888Z,1010.37
2018-11-23T11:45:19.193Z,1010.36
2018-11-23T11:46:19.649Z,1010.37
2018-11-23T11:47:19.849Z,1010.38
2018-11-23T11:48:20.695Z,1010.33
2018-11-23T11:49:18.686Z,1010.35
2018-11-23T11:50:18.652Z,1010.29
2018-11-23T11:51:18.636Z,1010.31
2018-11-23T11:52:18.888Z,1010.29
2018-11-23T11:53:18.705Z,1010.30
2018-11-23T11:54:18.639Z,1010.26
2018-11-23T11:55:18.854Z,1010.17
2018-11-23T11:56:18.830Z,1010.22
2018-11-23T11:57:18.829Z,1010.23
2018-11-23T11:58:18.830Z,1010.21
2018-11-23T11:59:20.935Z,1010.22
2018-11-23T12:00:18.551Z,1010.17
2018-11-23T12:01:18.590Z,1010.12
2018-11-23T12:02:18.537Z,1010.09
2018-11-23T12:03:18.790Z,1010.10
2018-11-23T12:04:18.496Z,1010.05
2018-11-23T12:05:18.780Z,1010.02